Terminal Aerodrome Forecast
Issued by NWS Green Bay, WI

Home | Current Version | Previous Version | Graphics & Text | Print | Product List | Glossary Off
Versions: 1 2 3 4 5 6 7 8 9 10 11 12 13 14 15 16 17 18 19 20 21 22 23

000
FTUS43 KGRB 241009 AAB
TAFGRB
TAF AMD
KGRB 241009Z 2410/2506 04012KT 5SM BR OVC008
      TEMPO 2410/2414 -SHRA BR OVC006
     FM241500 04012G16KT P6SM VCSH OVC012
     FM242300 04013KT P6SM BKN020=

USA.gov is the U.S. government's official web portal to all federal, state and local government web resources and services.